createdAt,value
2019-02-28T09:08:41.186Z,84.80
2019-02-28T09:11:09.717Z,86.23
2019-02-28T09:13:39.950Z,80.87
2019-02-28T09:16:08.582Z,84.33
2019-02-28T09:18:37.117Z,85.97
2019-02-28T09:21:05.699Z,81.80
2019-02-28T09:23:37.242Z,93.57
2019-02-28T09:26:04.513Z,81.50
2019-02-28T09:28:52.508Z,81.63
2019-02-28T09:31:22.977Z,87.00
2019-02-28T09:33:51.822Z,95.53
2019-02-28T09:36:21.508Z,89.90
2019-02-28T09:38:56.861Z,89.07
2019-02-28T09:41:25.210Z,88.10
2019-02-28T09:43:56.846Z,85.70
2019-02-28T09:46:25.181Z,92.73
2019-02-28T09:48:53.722Z,93.27
2019-02-28T09:51:24.739Z,87.40
2019-02-28T09:53:54.198Z,97.57
2019-02-28T09:56:24.625Z,90.47
2019-02-28T09:58:53.180Z,87.63
2019-02-28T10:01:24.465Z,100.37
2019-02-28T10:03:52.201Z,88.87
2019-02-28T10:06:22.317Z,93.90
2019-02-28T10:09:01.605Z,94.17
2019-02-28T10:11:31.897Z,93.47
2019-02-28T10:14:12.150Z,90.40
2019-02-28T10:16:31.549Z,92.10
2019-02-28T10:19:00.089Z,97.67
2019-02-28T10:21:29.591Z,99.40
2019-02-28T10:24:02.266Z,93.23
2019-02-28T10:26:41.962Z,93.40
2019-02-28T10:29:13.805Z,95.13
2019-02-28T10:31:42.384Z,102.37
2019-02-28T10:34:10.933Z,103.80
2019-02-28T10:36:39.519Z,103.00
2019-02-28T10:39:08.918Z,101.53
2019-02-28T10:41:38.326Z,107.00
2019-02-28T10:44:06.910Z,98.50
2019-02-28T10:46:39.052Z,106.97
2019-02-28T10:51:51.233Z,91.77
2019-02-28T10:54:48.439Z,109.70
2019-02-28T10:57:32.790Z,94.20
2019-02-28T11:00:12.539Z,105.23
2019-02-28T11:02:32.662Z,101.90
2019-02-28T11:05:03.502Z,98.70
2019-02-28T11:07:37.839Z,102.43
2019-02-28T11:10:06.622Z,102.30
2019-02-28T11:12:35.590Z,103.43
2019-02-28T11:15:04.758Z,97.13
2019-02-28T11:17:34.322Z,103.70
2019-02-28T11:20:03.460Z,100.80
2019-02-28T11:22:32.525Z,108.23
2019-02-28T11:25:05.410Z,87.97
2019-02-28T11:27:42.534Z,98.87
2019-02-28T11:30:14.678Z,97.63
2019-02-28T11:32:43.981Z,109.33
2019-02-28T11:35:13.074Z,107.67
2019-02-28T11:37:46.093Z,102.57
2019-02-28T11:40:18.325Z,103.83
2019-02-28T11:42:47.378Z,113.63
2019-02-28T11:45:21.578Z,100.37
2019-02-28T11:47:52.363Z,102.67
2019-02-28T11:50:30.333Z,98.83
2019-02-28T11:53:05.673Z,102.20
2019-02-28T11:55:42.801Z,99.37
2019-02-28T11:58:16.281Z,99.83
2019-02-28T12:00:45.743Z,93.07
2019-02-28T12:03:17.328Z,99.33
2019-02-28T12:05:49.918Z,101.17
2019-02-28T12:08:45.015Z,90.63
2019-02-28T12:11:15.246Z,96.77
2019-02-28T12:13:47.865Z,97.10
2019-02-28T12:16:24.420Z,88.87
2019-02-28T12:18:53.824Z,93.73
2019-02-28T12:21:22.896Z,80.00
2019-02-28T12:23:54.268Z,85.20
2019-02-28T12:26:33.131Z,89.47
2019-02-28T12:29:02.194Z,84.27
2019-02-28T12:31:35.570Z,84.10
2019-02-28T12:34:03.655Z,72.13
2019-02-28T12:36:32.683Z,69.03
2019-02-28T12:39:02.262Z,74.23
2019-02-28T12:41:32.226Z,67.50
2019-02-28T12:44:03.581Z,68.00
2019-02-28T12:46:32.768Z,87.10
2019-02-28T12:49:02.277Z,80.13
2019-02-28T12:51:32.874Z,77.07
2019-02-28T12:54:04.268Z,86.73
2019-02-28T12:56:33.411Z,80.47
2019-02-28T12:59:04.598Z,96.27
2019-02-28T13:01:36.358Z,81.73
2019-02-28T13:04:07.301Z,83.90
2019-02-28T13:06:39.733Z,96.97
2019-02-28T13:09:09.140Z,101.07
2019-02-28T13:11:39.919Z,93.60
2019-02-28T13:14:15.079Z,94.20
2019-02-28T13:16:54.521Z,90.80
2019-02-28T13:19:25.139Z,102.83
2019-02-28T13:22:18.767Z,74.90
2019-02-28T13:24:46.546Z,95.53
2019-02-28T13:27:34.809Z,99.07
2019-02-28T13:30:05.510Z,74.40
2019-02-28T13:32:53.949Z,83.73
2019-02-28T13:35:27.062Z,84.93
2019-02-28T13:37:56.118Z,81.43
2019-02-28T13:40:27.951Z,82.10
2019-02-28T13:43:20.960Z,82.40
2019-02-28T13:45:50.745Z,74.37
2019-02-28T13:48:26.377Z,79.40
2019-02-28T13:51:08.633Z,70.73
2019-02-28T13:53:40.646Z,55.67
2019-02-28T13:56:09.649Z,44.50
2019-02-28T13:58:39.047Z,39.80
2019-02-28T14:01:08.459Z,42.80
2019-02-28T14:03:37.889Z,36.10
2019-02-28T14:06:18.969Z,33.63
2019-02-28T14:08:46.009Z,34.93
2019-02-28T14:11:17.745Z,25.53
2019-02-28T14:13:46.752Z,36.13
2019-02-28T14:16:26.412Z,26.80
2019-02-28T14:18:52.255Z,23.90
2019-02-28T14:24:10.643Z,34.33
2019-02-28T14:26:46.511Z,32.77
2019-02-28T14:29:16.327Z,32.70
2019-02-28T14:31:45.399Z,33.27
2019-02-28T14:34:32.042Z,31.07
2019-02-28T14:37:01.730Z,27.90
2019-02-28T14:39:30.806Z,33.20
2019-02-28T14:42:03.040Z,30.40
2019-02-28T14:44:35.735Z,28.77
2019-02-28T14:47:04.762Z,41.60
2019-02-28T14:49:33.867Z,26.93
2019-02-28T14:52:03.568Z,26.27
2019-02-28T14:54:41.045Z,22.80
2019-02-28T14:57:10.034Z,17.33
2019-02-28T14:59:47.550Z,16.67
2019-02-28T15:02:34.215Z,16.07
2019-02-28T15:05:03.383Z,20.63
2019-02-28T15:07:55.516Z,16.83
2019-02-28T15:10:21.985Z,14.90
2019-02-28T15:13:02.262Z,16.53
2019-02-28T15:15:31.663Z,14.73
2019-02-28T15:18:00.730Z,13.13
2019-02-28T15:20:37.794Z,15.97
2019-02-28T15:23:08.691Z,12.93
2019-02-28T15:25:37.946Z,15.40
2019-02-28T15:28:24.730Z,18.97
2019-02-28T15:30:54.774Z,19.43
2019-02-28T15:33:27.372Z,11.97
2019-02-28T15:35:56.894Z,14.13
2019-02-28T15:38:26.030Z,14.43
2019-02-28T15:40:55.645Z,19.50
2019-02-28T15:43:27.391Z,16.10
2019-02-28T15:45:57.262Z,18.13
2019-02-28T15:48:26.332Z,16.30
2019-02-28T15:50:56.628Z,20.23
2019-02-28T15:53:31.775Z,21.93
2019-02-28T15:56:02.646Z,24.23
2019-02-28T15:58:31.711Z,13.00
2019-02-28T16:01:04.622Z,319.27
2019-02-28T16:03:37.135Z,36.10
2019-02-28T16:06:10.075Z,22.40
2019-02-28T16:08:41.923Z,17.67
2019-02-28T16:11:12.317Z,16.80
2019-02-28T16:13:43.215Z,9.53
2019-02-28T16:16:12.214Z,17.43
2019-02-28T16:18:44.075Z,11.43
2019-02-28T16:21:32.397Z,7.97
2019-02-28T16:24:04.816Z,11.80
2019-02-28T16:26:38.542Z,14.73
2019-02-28T16:29:10.202Z,10.67
2019-02-28T16:31:43.314Z,14.97
2019-02-28T16:34:12.390Z,10.43
2019-02-28T16:36:41.418Z,16.40
2019-02-28T16:39:10.442Z,13.67
2019-02-28T16:41:39.500Z,13.23
2019-02-28T16:44:11.032Z,11.03
2019-02-28T16:46:41.977Z,12.80
2019-02-28T16:49:11.299Z,7.73
2019-02-28T16:51:41.180Z,12.03
2019-02-28T16:54:11.609Z,9.60
2019-02-28T16:56:40.671Z,14.73
2019-02-28T16:59:11.682Z,17.13
2019-02-28T17:01:40.809Z,12.23
2019-02-28T17:04:09.867Z,18.20
2019-02-28T17:06:55.570Z,9.53
2019-02-28T17:09:36.799Z,15.07
2019-02-28T17:12:16.863Z,15.43
2019-02-28T17:14:48.320Z,20.50
2019-02-28T17:17:24.325Z,15.13
2019-02-28T17:19:53.310Z,14.37
2019-02-28T17:22:23.777Z,12.57
2019-02-28T17:24:53.142Z,16.90
2019-02-28T17:27:33.155Z,19.10
2019-02-28T17:30:17.151Z,14.13
2019-02-28T17:32:46.237Z,13.73
2019-02-28T17:35:33.859Z,11.27
2019-02-28T17:38:03.762Z,12.27
2019-02-28T17:40:35.638Z,10.10
2019-02-28T17:43:04.682Z,13.80
2019-02-28T17:45:35.465Z,15.63
2019-02-28T17:48:27.267Z,12.97
2019-02-28T17:51:35.631Z,13.67
2019-02-28T17:54:32.658Z,13.00
2019-02-28T17:57:25.918Z,14.27
2019-02-28T18:00:51.789Z,10.23
2019-02-28T18:03:53.689Z,13.90
2019-02-28T18:06:58.405Z,10.90
2019-02-28T18:10:24.290Z,15.07
2019-02-28T18:13:30.144Z,8.60
2019-02-28T18:16:37.615Z,12.77
2019-02-28T18:19:40.550Z,10.80
2019-02-28T18:22:32.222Z,9.97
2019-02-28T18:25:25.286Z,13.17
2019-02-28T18:28:40.586Z,12.87
2019-02-28T18:31:29.382Z,13.33
2019-02-28T18:34:20.584Z,11.03
2019-02-28T18:36:50.418Z,16.80
2019-02-28T18:39:19.421Z,13.63
2019-02-28T18:41:48.599Z,19.17
2019-02-28T18:44:19.955Z,21.20
2019-02-28T18:46:49.118Z,16.43
2019-02-28T18:49:18.182Z,26.10
2019-02-28T18:51:47.384Z,29.00
2019-02-28T18:54:16.492Z,19.47
2019-02-28T18:56:45.590Z,20.10
2019-02-28T18:59:14.834Z,21.53
2019-02-28T19:01:44.243Z,21.07
2019-02-28T19:04:13.318Z,18.93
2019-02-28T19:06:42.370Z,17.30
2019-02-28T19:09:23.391Z,21.83
2019-02-28T19:11:52.427Z,17.60
2019-02-28T19:14:21.469Z,15.37
2019-02-28T19:16:50.547Z,18.63
2019-02-28T19:19:19.976Z,14.07
2019-02-28T19:21:49.094Z,17.03
2019-02-28T19:24:19.258Z,13.60
2019-02-28T19:26:48.387Z,11.80
2019-02-28T19:29:18.874Z,13.23
2019-02-28T19:31:47.936Z,17.20
2019-02-28T19:34:16.943Z,14.13
2019-02-28T19:36:53.047Z,13.60
2019-02-28T19:39:22.122Z,10.33
2019-02-28T19:41:54.467Z,20.60
2019-02-28T19:44:23.516Z,10.97
2019-02-28T19:46:52.660Z,16.87
2019-02-28T19:49:21.702Z,11.67
2019-02-28T19:51:53.888Z,16.73
2019-02-28T19:54:22.983Z,12.53
2019-02-28T19:56:51.971Z,10.77
2019-02-28T19:59:21.020Z,13.13
2019-02-28T20:01:51.358Z,10.77
2019-02-28T20:04:22.254Z,10.30
2019-02-28T20:06:51.595Z,11.60
2019-02-28T20:09:23.131Z,13.93
2019-02-28T20:11:55.002Z,10.00
2019-02-28T20:14:24.098Z,11.13
2019-02-28T20:16:53.570Z,13.77
2019-02-28T20:19:22.611Z,13.73
2019-02-28T20:21:51.691Z,14.43
2019-02-28T20:24:22.610Z,12.77
2019-02-28T20:26:51.668Z,13.80
2019-02-28T20:29:20.725Z,13.67
2019-02-28T20:31:49.762Z,13.93
2019-02-28T20:34:18.802Z,15.27
2019-02-28T20:36:47.871Z,14.77
2019-02-28T20:39:18.827Z,17.07
2019-02-28T20:41:50.566Z,15.07
2019-02-28T20:44:19.646Z,16.07
2019-02-28T20:46:48.615Z,20.63
2019-02-28T20:49:17.711Z,19.67
2019-02-28T20:51:54.821Z,18.23
2019-02-28T20:54:18.817Z,17.73
2019-02-28T20:56:54.618Z,17.40
2019-02-28T20:59:23.566Z,17.03
2019-02-28T21:02:01.790Z,17.93
2019-02-28T21:04:30.866Z,23.53
2019-02-28T21:06:59.944Z,17.87
2019-02-28T21:09:29.981Z,19.13
2019-02-28T21:11:59.146Z,21.23
2019-02-28T21:14:28.802Z,20.70
2019-02-28T21:16:58.246Z,26.70
2019-02-28T21:19:34.411Z,20.03
2019-02-28T21:22:06.334Z,17.53
2019-02-28T21:24:37.986Z,19.37
2019-02-28T21:27:08.622Z,18.37
2019-02-28T21:29:37.683Z,21.80
2019-02-28T21:32:06.714Z,19.57
2019-02-28T21:34:35.861Z,23.17
2019-02-28T21:37:04.882Z,18.93
2019-02-28T21:39:36.122Z,19.67
2019-02-28T21:42:08.131Z,18.03
2019-02-28T21:44:37.173Z,15.90
2019-02-28T21:47:06.135Z,16.47
2019-02-28T21:49:38.143Z,18.07
2019-02-28T21:52:07.222Z,19.57
2019-02-28T21:54:37.256Z,21.97
2019-02-28T21:57:08.655Z,20.30
2019-02-28T21:59:39.013Z,17.80
2019-02-28T22:02:08.085Z,17.80
2019-02-28T22:04:45.285Z,23.47
2019-02-28T22:07:14.398Z,15.37
2019-02-28T22:09:43.492Z,18.90
2019-02-28T22:12:13.850Z,18.80
2019-02-28T22:15:00.996Z,19.60
2019-02-28T22:17:31.774Z,26.97
2019-02-28T22:20:00.766Z,17.10
2019-02-28T22:22:30.863Z,18.87
2019-02-28T22:25:01.818Z,15.23
2019-02-28T22:27:51.301Z,14.33
2019-02-28T22:30:45.352Z,16.37
2019-02-28T22:33:26.243Z,19.00
2019-02-28T22:35:56.979Z,20.93
2019-02-28T22:38:27.630Z,23.77
2019-02-28T22:40:56.974Z,17.47
2019-02-28T22:43:26.070Z,17.47
2019-02-28T22:45:55.462Z,19.80
2019-02-28T22:48:26.589Z,21.13
2019-02-28T22:51:02.071Z,20.37
2019-02-28T22:53:32.636Z,19.20
2019-02-28T22:56:04.989Z,23.10
2019-02-28T22:58:34.054Z,17.87
2019-02-28T23:01:16.872Z,22.20
2019-02-28T23:03:45.913Z,24.47
2019-02-28T23:06:16.727Z,20.80
2019-02-28T23:08:59.981Z,21.83
2019-02-28T23:11:21.183Z,22.43
2019-02-28T23:13:55.046Z,24.87
2019-02-28T23:16:25.605Z,21.13
2019-02-28T23:18:54.625Z,26.10
2019-02-28T23:21:23.686Z,20.43
2019-02-28T23:23:54.042Z,18.53
2019-02-28T23:26:29.374Z,20.97
2019-02-28T23:29:18.776Z,19.43
2019-02-28T23:32:30.520Z,24.53
2019-02-28T23:35:01.133Z,27.77
2019-02-28T23:37:30.184Z,22.43
2019-02-28T23:39:59.880Z,20.50
2019-02-28T23:42:28.997Z,27.43
2019-02-28T23:44:59.059Z,22.57
2019-02-28T23:47:38.063Z,20.30
2019-02-28T23:50:09.786Z,22.67
2019-02-28T23:52:39.454Z,26.40
2019-02-28T23:55:10.377Z,23.53
2019-02-28T23:57:50.432Z,21.43
